Fountain, Alabama
Current Conditions -  °F | °C
As of 6:53 AM on Friday 24 Oct 2014 (Local Time) from KGZH Reporting Station
Haze Haze  
Wind Chill: 47°   Ceiling: Unl
Heat Index: 47°   Visibility: 5mi
Dew Point: 45°   Wind: 0mph
Humidity: 93%   Direction: NA
Pressure: 30.08"   Gusts: NA
Location:  31.5178°N, 87.3209°W
Report Text: KGZH 241153Z AUTO 00000KT 5SM BR CLR 08/07 A3008 RMK AO2 SLP185 T00830072 10139 20083 51008
Loading
Personal Weather Stations






























Interactive Weather Map
Tropical Storm Tracking
New forecast layout! Learn more

10-Day Weather Forecast

Advertisements
Track Severe Weather on mobile